createdAt,value
2023-02-13T00:00:36.570Z,2.03
2023-02-13T00:01:39.641Z,1.77
2023-02-13T00:02:42.769Z,1.67
2023-02-13T00:03:45.952Z,1.95
2023-02-13T00:04:49.128Z,1.45
2023-02-13T00:05:52.063Z,1.62
2023-02-13T00:06:55.066Z,1.60
2023-02-13T00:07:57.974Z,1.55
2023-02-13T00:09:00.980Z,1.30
2023-02-13T00:10:05.849Z,1.40
2023-02-13T00:11:08.963Z,2.20
2023-02-13T00:12:11.954Z,1.80
2023-02-13T00:13:15.229Z,1.80
2023-02-13T00:14:18.469Z,1.62
2023-02-13T00:15:21.509Z,1.83
2023-02-13T00:16:24.481Z,2.05
2023-02-13T00:17:27.881Z,1.70
2023-02-13T00:18:35.540Z,1.85
2023-02-13T00:19:38.481Z,1.85
2023-02-13T00:20:41.462Z,1.70
2023-02-13T00:21:44.519Z,1.67
2023-02-13T00:22:47.442Z,1.40
2023-02-13T00:23:50.547Z,1.17
2023-02-13T00:24:53.587Z,1.90
2023-02-13T00:25:56.797Z,2.28
2023-02-13T00:26:59.971Z,1.50
2023-02-13T00:28:03.099Z,1.55
2023-02-13T00:29:06.455Z,2.47
2023-02-13T00:30:10.482Z,1.50
2023-02-13T00:31:19.126Z,2.05
2023-02-13T00:32:22.171Z,1.77
2023-02-13T00:33:25.088Z,1.35
2023-02-13T00:34:28.546Z,2.37
2023-02-13T00:35:31.771Z,1.45
2023-02-13T00:36:35.012Z,1.67
2023-02-13T00:37:38.775Z,1.60
2023-02-13T00:38:43.153Z,1.60
2023-02-13T00:39:46.185Z,1.27
2023-02-13T00:40:49.123Z,1.67
2023-02-13T00:41:52.124Z,1.98
2023-02-13T00:42:55.079Z,1.42
2023-02-13T00:43:58.120Z,1.50
2023-02-13T00:45:01.081Z,1.50
2023-02-13T00:46:05.398Z,1.80
2023-02-13T00:47:08.458Z,2.00
2023-02-13T00:48:11.611Z,1.40
2023-02-13T00:49:14.525Z,1.40
2023-02-13T00:50:17.578Z,1.65
2023-02-13T00:51:20.610Z,1.87
2023-02-13T00:52:23.751Z,1.15
2023-02-13T00:53:27.646Z,1.42
2023-02-13T00:54:30.779Z,1.83
2023-02-13T00:55:34.308Z,1.65
2023-02-13T00:56:37.321Z,1.95
2023-02-13T00:57:40.401Z,1.65
2023-02-13T00:58:43.386Z,1.60
2023-02-13T00:59:46.730Z,2.03
2023-02-13T01:00:50.314Z,1.25
2023-02-13T01:01:53.384Z,1.33
2023-02-13T01:02:56.670Z,1.30
2023-02-13T01:03:59.829Z,1.73
2023-02-13T01:05:03.339Z,2.00
2023-02-13T01:06:07.074Z,1.80
2023-02-13T01:07:10.089Z,1.58
2023-02-13T01:08:14.528Z,1.90
2023-02-13T01:09:17.737Z,1.62
2023-02-13T01:10:20.826Z,1.85
2023-02-13T01:11:23.774Z,1.70
2023-02-13T01:12:26.653Z,1.80
2023-02-13T01:13:29.730Z,1.48
2023-02-13T01:14:32.689Z,1.90
2023-02-13T01:15:36.415Z,1.48
2023-02-13T01:16:39.455Z,1.55
2023-02-13T01:17:42.850Z,1.85
2023-02-13T01:18:45.789Z,1.70
2023-02-13T01:19:48.864Z,2.00
2023-02-13T01:21:04.069Z,2.17
2023-02-13T01:22:09.228Z,1.40
2023-02-13T01:23:12.998Z,1.83
2023-02-13T01:24:15.984Z,1.45
2023-02-13T01:25:18.983Z,1.58
2023-02-13T01:26:25.660Z,1.60
2023-02-13T01:27:29.382Z,1.70
2023-02-13T01:28:32.947Z,1.48
2023-02-13T01:29:35.904Z,1.62
2023-02-13T01:30:38.846Z,1.80
2023-02-13T01:31:42.173Z,2.10
2023-02-13T01:32:46.996Z,1.40
2023-02-13T01:33:50.027Z,1.30
2023-02-13T01:34:52.983Z,1.30
2023-02-13T01:35:55.900Z,1.50
2023-02-13T01:36:58.923Z,1.40
2023-02-13T01:38:01.820Z,2.75
2023-02-13T01:39:04.900Z,1.77
2023-02-13T01:40:10.746Z,1.45
2023-02-13T01:41:15.842Z,1.35
2023-02-13T01:42:25.987Z,1.50
2023-02-13T01:43:50.656Z,1.92
2023-02-13T01:44:55.257Z,1.60
2023-02-13T01:45:59.146Z,1.50
2023-02-13T01:47:02.138Z,1.83
2023-02-13T01:48:23.397Z,1.75
2023-02-13T01:49:26.733Z,1.40
2023-02-13T01:50:39.869Z,1.92
2023-02-13T01:51:43.960Z,1.40
2023-02-13T01:52:52.854Z,1.70
2023-02-13T01:54:06.283Z,1.62
2023-02-13T01:55:10.273Z,1.55
2023-02-13T01:56:28.859Z,1.35
2023-02-13T01:57:33.546Z,1.50
2023-02-13T01:58:39.209Z,1.50
2023-02-13T02:00:07.437Z,1.52
2023-02-13T02:01:11.247Z,1.40
2023-02-13T02:02:14.850Z,1.80
2023-02-13T02:03:40.861Z,1.75
2023-02-13T02:04:46.159Z,2.20
2023-02-13T02:05:51.695Z,1.73
2023-02-13T02:07:09.064Z,1.70
2023-02-13T02:08:15.084Z,1.95
2023-02-13T02:09:23.918Z,1.52
2023-02-13T02:10:26.897Z,1.67
2023-02-13T02:11:45.631Z,1.90
2023-02-13T02:13:11.280Z,1.42
2023-02-13T02:14:14.423Z,1.20
2023-02-13T02:15:17.459Z,1.60
2023-02-13T02:16:20.647Z,1.70
2023-02-13T02:17:26.391Z,1.62
2023-02-13T02:18:30.060Z,2.50
2023-02-13T02:19:39.847Z,1.75
2023-02-13T02:20:55.358Z,1.60
2023-02-13T02:22:27.703Z,2.55
2023-02-13T02:23:39.940Z,1.48
2023-02-13T02:25:20.246Z,1.52
2023-02-13T02:26:51.231Z,1.77
2023-02-13T02:28:06.155Z,2.22
2023-02-13T02:30:22.909Z,2.22
2023-02-13T02:31:44.161Z,1.40
2023-02-13T02:33:12.107Z,1.75
2023-02-13T02:34:37.785Z,1.30
2023-02-13T02:36:00.116Z,2.55
2023-02-13T02:37:21.274Z,1.67
2023-02-13T02:40:11.022Z,1.67
2023-02-13T02:41:43.400Z,2.08
2023-02-13T02:43:06.826Z,1.95
2023-02-13T02:44:28.927Z,2.17
2023-02-13T02:45:39.616Z,1.52
2023-02-13T02:47:28.623Z,2.17
2023-02-13T02:48:58.611Z,1.60
2023-02-13T02:50:33.397Z,1.80
2023-02-13T02:52:04.264Z,1.50
2023-02-13T02:53:31.721Z,1.90
2023-02-13T02:55:06.847Z,1.33
2023-02-13T02:56:40.658Z,1.60
2023-02-13T02:58:10.790Z,1.70
2023-02-13T02:59:39.219Z,1.30
2023-02-13T03:01:02.392Z,1.60
2023-02-13T03:02:25.663Z,1.80
2023-02-13T03:03:49.420Z,2.03
2023-02-13T03:05:14.002Z,3.08
2023-02-13T03:06:25.633Z,2.03
2023-02-13T03:07:28.628Z,1.83
2023-02-13T03:08:50.561Z,1.65
2023-02-13T03:10:16.416Z,1.40
2023-02-13T03:11:38.354Z,2.70
2023-02-13T03:13:23.225Z,1.48
2023-02-13T03:14:28.583Z,1.45
2023-02-13T03:15:33.654Z,2.22
2023-02-13T03:16:55.735Z,1.70
2023-02-13T03:18:18.279Z,2.47
2023-02-13T03:20:17.808Z,1.98
2023-02-13T03:22:15.284Z,1.75
2023-02-13T03:23:30.717Z,1.90
2023-02-13T03:24:39.416Z,1.95
2023-02-13T03:25:58.452Z,2.05
2023-02-13T03:27:40.417Z,1.62
2023-02-13T03:29:17.105Z,1.77
2023-02-13T03:30:49.313Z,1.92
2023-02-13T03:32:12.655Z,1.60
2023-02-13T03:33:27.056Z,1.85
2023-02-13T03:35:01.776Z,2.67
2023-02-13T03:36:35.093Z,2.30
2023-02-13T03:37:55.880Z,2.20
2023-02-13T03:39:24.678Z,2.28
2023-02-13T03:41:01.417Z,1.37
2023-02-13T03:42:17.759Z,1.80
2023-02-13T03:43:22.330Z,1.40
2023-02-13T03:44:42.660Z,1.70
2023-02-13T03:45:57.602Z,1.33
2023-02-13T03:47:04.658Z,1.50
2023-02-13T03:48:29.953Z,2.20
2023-02-13T03:50:03.260Z,2.17
2023-02-13T03:51:09.255Z,2.15
2023-02-13T03:52:22.448Z,2.65
2023-02-13T03:53:29.078Z,1.83
2023-02-13T03:55:01.592Z,1.80
2023-02-13T03:56:24.497Z,2.28
2023-02-13T03:57:50.876Z,1.60
2023-02-13T03:59:15.088Z,2.45
2023-02-13T04:00:21.201Z,1.65
2023-02-13T04:01:29.332Z,2.15
2023-02-13T04:02:38.097Z,1.50
2023-02-13T04:03:57.297Z,1.90
2023-02-13T04:05:16.447Z,1.70
2023-02-13T04:06:46.507Z,1.80
2023-02-13T04:07:49.695Z,1.80
2023-02-13T04:08:52.697Z,2.40
2023-02-13T04:10:17.626Z,1.85
2023-02-13T04:11:50.091Z,2.03
2023-02-13T04:13:24.391Z,2.50
2023-02-13T04:14:33.654Z,2.15
2023-02-13T04:15:46.600Z,2.12
2023-02-13T04:17:05.606Z,1.55
2023-02-13T04:18:31.455Z,2.37
2023-02-13T04:19:34.863Z,3.28
2023-02-13T04:20:38.655Z,2.28
2023-02-13T04:21:41.893Z,1.98
2023-02-13T04:22:46.836Z,2.00
2023-02-13T04:23:50.822Z,2.00
2023-02-13T04:24:53.775Z,1.95
2023-02-13T04:26:06.849Z,1.87
2023-02-13T04:27:16.786Z,2.15
2023-02-13T04:28:19.890Z,3.05
2023-02-13T04:29:24.565Z,2.25
2023-02-13T04:30:27.835Z,1.70
2023-02-13T04:31:31.338Z,2.40
2023-02-13T04:32:34.221Z,2.28
2023-02-13T04:33:37.287Z,2.28
2023-02-13T04:34:40.194Z,2.28
2023-02-13T04:35:43.178Z,2.60
2023-02-13T04:36:46.457Z,3.08
2023-02-13T04:37:49.442Z,1.83
2023-02-13T04:38:52.715Z,2.17
2023-02-13T04:39:55.509Z,2.40
2023-02-13T04:40:58.778Z,2.33
2023-02-13T04:42:01.864Z,3.78
2023-02-13T04:43:05.005Z,1.42
2023-02-13T04:44:08.387Z,2.72
2023-02-13T04:45:11.335Z,2.67
2023-02-13T04:46:14.590Z,2.22
2023-02-13T04:47:17.880Z,2.30
2023-02-13T04:48:20.841Z,2.08
2023-02-13T04:49:23.957Z,2.28
2023-02-13T04:50:26.838Z,2.05
2023-02-13T04:51:29.842Z,2.67
2023-02-13T04:52:32.772Z,1.60
2023-02-13T04:53:35.729Z,2.20
2023-02-13T04:54:38.801Z,1.95
2023-02-13T04:55:41.809Z,2.05
2023-02-13T04:56:44.792Z,2.85
2023-02-13T04:57:48.578Z,2.00
2023-02-13T04:58:51.664Z,2.30
2023-02-13T04:59:54.667Z,1.67
2023-02-13T05:00:57.862Z,2.58
2023-02-13T05:02:01.065Z,2.20
2023-02-13T05:03:12.987Z,2.55
2023-02-13T05:04:17.794Z,2.45
2023-02-13T05:05:21.669Z,2.47
2023-02-13T05:06:24.776Z,1.92
2023-02-13T05:07:27.876Z,3.10
2023-02-13T05:08:30.876Z,3.10
2023-02-13T05:09:34.989Z,2.78
2023-02-13T05:10:37.999Z,2.28
2023-02-13T05:11:41.151Z,2.37
2023-02-13T05:12:44.074Z,2.08
2023-02-13T05:13:47.336Z,2.42
2023-02-13T05:14:50.222Z,2.42
2023-02-13T05:15:53.212Z,2.85
2023-02-13T05:16:56.177Z,2.97
2023-02-13T05:17:59.308Z,1.90
2023-02-13T05:19:02.927Z,3.33
2023-02-13T05:20:07.255Z,2.08
2023-02-13T05:21:28.754Z,2.40
2023-02-13T05:22:50.626Z,2.55
2023-02-13T05:23:53.627Z,2.08
2023-02-13T05:24:56.495Z,2.45
2023-02-13T05:26:00.026Z,2.97
2023-02-13T05:27:03.063Z,2.55
2023-02-13T05:28:27.389Z,1.95
2023-02-13T05:29:30.344Z,4.15
2023-02-13T05:30:33.252Z,3.05
2023-02-13T05:31:36.210Z,2.10
2023-02-13T05:32:39.503Z,1.80
2023-02-13T05:33:42.919Z,1.98
2023-02-13T05:34:45.803Z,1.92
2023-02-13T05:35:48.844Z,2.67
2023-02-13T05:36:52.057Z,1.90
2023-02-13T05:37:55.066Z,2.28
2023-02-13T05:38:58.119Z,2.25
2023-02-13T05:40:01.435Z,2.05
2023-02-13T05:41:04.611Z,1.85
2023-02-13T05:42:07.643Z,2.53
2023-02-13T05:43:10.582Z,2.10
2023-02-13T05:44:14.244Z,2.37
2023-02-13T05:45:17.545Z,3.03
2023-02-13T05:46:20.628Z,2.42
2023-02-13T05:47:23.866Z,2.00
2023-02-13T05:48:26.946Z,2.22
2023-02-13T05:49:29.976Z,2.10
2023-02-13T05:50:32.828Z,2.35
2023-02-13T05:51:35.944Z,2.15
2023-02-13T05:52:38.905Z,1.80
2023-02-13T05:53:42.015Z,2.65
2023-02-13T05:54:44.963Z,2.53
2023-02-13T05:55:47.922Z,2.10
2023-02-13T05:56:50.959Z,2.78
2023-02-13T05:57:57.986Z,2.60
2023-02-13T05:59:00.960Z,2.15
2023-02-13T06:00:05.304Z,2.75
2023-02-13T06:01:08.384Z,3.00
2023-02-13T06:02:11.689Z,2.10
2023-02-13T06:03:15.371Z,3.53
2023-02-13T06:04:18.373Z,2.30
2023-02-13T06:05:22.576Z,2.37
2023-02-13T06:06:25.808Z,2.92
2023-02-13T06:07:28.726Z,2.15
2023-02-13T06:08:31.943Z,2.35
2023-02-13T06:09:34.947Z,2.17
2023-02-13T06:10:37.827Z,1.87
2023-02-13T06:11:40.966Z,2.70
2023-02-13T06:12:44.111Z,2.60
2023-02-13T06:13:47.347Z,2.50
2023-02-13T06:14:50.282Z,2.47
2023-02-13T06:15:53.595Z,2.37
2023-02-13T06:16:56.502Z,2.62
2023-02-13T06:17:59.767Z,2.72
2023-02-13T06:19:03.288Z,2.37
2023-02-13T06:20:07.355Z,2.95
2023-02-13T06:21:10.829Z,3.47
2023-02-13T06:22:13.741Z,2.08
2023-02-13T06:23:17.067Z,2.33
2023-02-13T06:24:19.925Z,2.75
2023-02-13T06:25:23.172Z,2.47
2023-02-13T06:26:26.326Z,2.08
2023-02-13T06:27:29.501Z,2.10
2023-02-13T06:28:32.797Z,2.30
2023-02-13T06:29:35.710Z,3.03
2023-02-13T06:30:38.645Z,2.70
2023-02-13T06:31:41.575Z,2.30
2023-02-13T06:32:46.640Z,2.58
2023-02-13T06:33:49.517Z,2.72
2023-02-13T06:34:52.275Z,2.45
2023-02-13T06:35:55.314Z,2.70
2023-02-13T06:36:58.252Z,1.95
2023-02-13T06:38:01.288Z,2.30
2023-02-13T06:39:05.078Z,1.77
2023-02-13T06:40:08.905Z,2.33
2023-02-13T06:41:12.052Z,2.12
2023-02-13T06:42:15.029Z,1.60
2023-02-13T06:43:18.500Z,2.42
2023-02-13T06:44:21.359Z,2.15
2023-02-13T06:45:24.252Z,2.62
2023-02-13T06:46:27.438Z,2.30
2023-02-13T06:47:30.502Z,2.55
2023-02-13T06:48:34.261Z,1.85
2023-02-13T06:49:37.169Z,2.60
2023-02-13T06:50:40.154Z,2.25
2023-02-13T06:51:43.285Z,1.60
2023-02-13T06:52:49.913Z,2.62
2023-02-13T06:53:52.768Z,2.45
2023-02-13T06:54:55.716Z,2.35
2023-02-13T06:55:58.791Z,1.90
2023-02-13T06:57:02.414Z,1.75
2023-02-13T06:58:06.310Z,2.87
2023-02-13T06:59:09.401Z,2.00
2023-02-13T07:00:15.334Z,2.20
2023-02-13T07:01:18.235Z,2.22
2023-02-13T07:02:21.661Z,1.70
2023-02-13T07:03:25.280Z,1.92
2023-02-13T07:04:28.868Z,2.65
2023-02-13T07:05:32.911Z,2.60
2023-02-13T07:06:36.077Z,2.65
2023-02-13T07:07:41.616Z,1.90
2023-02-13T07:08:44.986Z,1.92
2023-02-13T07:09:48.421Z,2.92
2023-02-13T07:10:51.331Z,1.75
2023-02-13T07:11:54.522Z,3.35
2023-02-13T07:13:05.730Z,2.17
2023-02-13T07:14:10.078Z,1.87
2023-02-13T07:15:13.041Z,2.45
2023-02-13T07:16:15.997Z,2.30
2023-02-13T07:17:19.045Z,2.83
2023-02-13T07:18:22.324Z,1.70
2023-02-13T07:19:25.393Z,2.83
2023-02-13T07:20:28.977Z,2.15
2023-02-13T07:21:32.061Z,2.08
2023-02-13T07:22:35.165Z,3.03
2023-02-13T07:23:38.222Z,1.73
2023-02-13T07:24:41.313Z,2.40
2023-02-13T07:25:44.158Z,1.95
2023-02-13T07:26:47.250Z,2.35
2023-02-13T07:27:50.126Z,1.83
2023-02-13T07:29:05.791Z,2.85
2023-02-13T07:30:14.611Z,4.25
2023-02-13T07:31:17.852Z,3.28
2023-02-13T07:32:20.833Z,2.20
2023-02-13T07:33:24.767Z,2.30
2023-02-13T07:34:27.865Z,1.77
2023-02-13T07:35:31.397Z,3.05
2023-02-13T07:36:34.757Z,3.05
2023-02-13T07:37:37.911Z,3.78
2023-02-13T07:38:40.875Z,2.62
2023-02-13T07:39:43.869Z,2.20
2023-02-13T07:40:47.176Z,3.58
2023-02-13T07:41:50.074Z,2.28
2023-02-13T07:42:52.933Z,2.12
2023-02-13T07:43:55.885Z,2.20
2023-02-13T07:44:59.060Z,2.58
2023-02-13T07:46:03.168Z,3.05
2023-02-13T07:47:06.299Z,2.25
2023-02-13T07:48:09.342Z,4.12
2023-02-13T07:49:12.352Z,2.42
2023-02-13T07:50:17.844Z,2.78
2023-02-13T07:51:21.114Z,2.83
2023-02-13T07:52:24.153Z,2.22
2023-02-13T07:53:27.252Z,2.55
2023-02-13T07:54:30.731Z,2.58
2023-02-13T07:55:33.683Z,2.40
2023-02-13T07:56:37.323Z,2.75
2023-02-13T07:57:40.205Z,2.25
2023-02-13T07:58:44.847Z,2.33
2023-02-13T07:59:47.798Z,2.90
2023-02-13T08:00:50.786Z,2.62
2023-02-13T08:01:54.316Z,3.03
2023-02-13T08:03:01.810Z,2.97
2023-02-13T08:04:05.002Z,3.25
2023-02-13T08:05:08.330Z,2.20
2023-02-13T08:06:12.488Z,2.37
2023-02-13T08:07:17.814Z,1.90
2023-02-13T08:08:20.637Z,3.35
2023-02-13T08:09:42.396Z,2.53
2023-02-13T08:11:04.252Z,2.28
2023-02-13T08:12:08.730Z,2.22
2023-02-13T08:13:15.204Z,3.28
2023-02-13T08:14:17.937Z,1.87
2023-02-13T08:15:20.860Z,2.60
2023-02-13T08:16:23.781Z,2.25
2023-02-13T08:17:26.814Z,2.30
2023-02-13T08:18:29.761Z,2.55
2023-02-13T08:19:33.000Z,3.28
2023-02-13T08:20:36.445Z,3.17
2023-02-13T08:21:40.922Z,2.55
2023-02-13T08:22:44.093Z,2.35
2023-02-13T08:23:48.934Z,2.58
2023-02-13T08:24:51.950Z,2.22
2023-02-13T08:25:55.648Z,2.28
2023-02-13T08:26:58.999Z,2.45
2023-02-13T08:28:02.396Z,2.75
2023-02-13T08:29:06.007Z,2.58
2023-02-13T08:30:10.523Z,3.10
2023-02-13T08:31:13.641Z,2.72
2023-02-13T08:32:16.633Z,2.78
2023-02-13T08:33:19.627Z,3.05
2023-02-13T08:34:22.556Z,3.00
2023-02-13T08:35:34.021Z,2.10
2023-02-13T08:36:37.032Z,3.80
2023-02-13T08:37:40.263Z,2.37
2023-02-13T08:38:43.272Z,2.10
2023-02-13T08:39:46.686Z,3.40
2023-02-13T08:40:49.622Z,2.92
2023-02-13T08:41:52.602Z,3.12
2023-02-13T08:43:06.149Z,2.87
2023-02-13T08:44:10.730Z,3.15
2023-02-13T08:45:13.836Z,2.78
2023-02-13T08:46:18.130Z,3.87
2023-02-13T08:47:21.441Z,2.62
2023-02-13T08:48:24.774Z,2.80
2023-02-13T08:49:28.155Z,2.80
2023-02-13T08:50:32.150Z,2.97
2023-02-13T08:51:35.243Z,3.42
2023-02-13T08:52:38.451Z,3.95
2023-02-13T08:53:42.709Z,3.20
2023-02-13T08:54:46.017Z,3.08
2023-02-13T08:55:54.254Z,3.40
2023-02-13T08:56:58.654Z,2.80
2023-02-13T08:58:02.923Z,2.25
2023-02-13T08:59:05.908Z,3.30
2023-02-13T09:00:09.302Z,3.50
2023-02-13T09:01:12.359Z,3.45
2023-02-13T09:02:15.518Z,3.58
2023-02-13T09:03:18.595Z,2.67
2023-02-13T09:04:21.599Z,2.65
2023-02-13T09:05:24.579Z,2.95
2023-02-13T09:06:28.690Z,3.20
2023-02-13T09:07:31.550Z,3.25
2023-02-13T09:08:37.888Z,3.55
2023-02-13T09:09:40.916Z,3.50
2023-02-13T09:10:44.318Z,3.00
2023-02-13T09:11:47.904Z,3.58
2023-02-13T09:12:54.865Z,3.28
2023-02-13T09:13:58.222Z,3.53
2023-02-13T09:15:01.612Z,3.58
2023-02-13T09:16:07.531Z,3.25
2023-02-13T09:17:11.132Z,3.72
2023-02-13T09:18:14.149Z,3.67
2023-02-13T09:19:17.259Z,3.12
2023-02-13T09:20:20.526Z,2.42
2023-02-13T09:21:26.743Z,3.12
2023-02-13T09:22:30.148Z,3.90
2023-02-13T09:23:35.373Z,2.62
2023-02-13T09:24:38.722Z,4.15
2023-02-13T09:25:41.905Z,3.20
2023-02-13T09:26:44.930Z,3.85
2023-02-13T09:27:47.738Z,3.20
2023-02-13T09:28:50.582Z,3.00
2023-02-13T09:29:53.846Z,4.35
2023-02-13T09:30:57.059Z,3.90
2023-02-13T09:32:00.793Z,5.10
2023-02-13T09:33:03.939Z,4.43
2023-02-13T09:34:06.864Z,3.40
2023-02-13T09:35:09.918Z,3.35
2023-02-13T09:36:15.795Z,3.67
2023-02-13T09:37:19.217Z,2.87
2023-02-13T09:38:22.261Z,3.28
2023-02-13T09:39:25.488Z,3.15
2023-02-13T09:40:41.680Z,3.50
2023-02-13T09:41:47.905Z,3.58
2023-02-13T09:42:51.493Z,2.35
2023-02-13T09:44:00.050Z,3.25
2023-02-13T09:45:06.823Z,3.50
2023-02-13T09:46:17.952Z,2.70
2023-02-13T09:47:37.470Z,3.17
2023-02-13T09:48:45.289Z,2.78
2023-02-13T09:49:54.763Z,3.37
2023-02-13T09:50:59.011Z,3.40
2023-02-13T09:52:02.832Z,3.00
2023-02-13T09:53:05.893Z,3.30
2023-02-13T09:54:13.519Z,2.90
2023-02-13T09:55:37.810Z,3.70
2023-02-13T09:57:02.306Z,2.80
2023-02-13T09:58:21.318Z,3.08
2023-02-13T09:59:43.260Z,4.30
2023-02-13T10:00:52.427Z,3.12
2023-02-13T10:02:00.649Z,3.08
2023-02-13T10:03:22.078Z,3.28
2023-02-13T10:05:01.398Z,3.67
2023-02-13T10:06:50.175Z,2.78
2023-02-13T10:08:26.106Z,3.05
2023-02-13T10:09:38.919Z,2.25
2023-02-13T10:10:45.278Z,2.72
2023-02-13T10:12:22.256Z,2.90
2023-02-13T10:13:43.411Z,2.95
2023-02-13T10:14:53.494Z,3.15
2023-02-13T10:16:17.412Z,2.87
2023-02-13T10:18:01.799Z,2.60
2023-02-13T10:19:13.158Z,3.25
2023-02-13T10:20:26.613Z,3.55
2023-02-13T10:21:36.731Z,2.90
2023-02-13T10:22:56.233Z,2.87
2023-02-13T10:24:07.917Z,3.25
2023-02-13T10:25:21.806Z,2.80
2023-02-13T10:26:42.958Z,3.20
2023-02-13T10:27:50.279Z,3.00
2023-02-13T10:29:28.494Z,4.53
2023-02-13T10:30:37.279Z,3.65
2023-02-13T10:31:43.134Z,4.03
2023-02-13T10:33:19.539Z,2.80
2023-02-13T10:34:26.601Z,3.85
2023-02-13T10:35:31.752Z,3.30
2023-02-13T10:36:39.763Z,3.35
2023-02-13T10:37:43.414Z,3.20
2023-02-13T10:39:09.214Z,3.20
2023-02-13T10:40:13.476Z,2.67
2023-02-13T10:41:41.770Z,3.20
2023-02-13T10:42:48.548Z,3.05
2023-02-13T10:44:48.380Z,3.12
2023-02-13T10:46:17.166Z,2.80
2023-02-13T10:47:44.612Z,3.37
2023-02-13T10:49:01.440Z,2.20
2023-02-13T10:50:36.123Z,1.90
2023-02-13T10:51:58.148Z,3.05
2023-02-13T10:53:16.864Z,2.30
2023-02-13T10:54:55.642Z,1.45
2023-02-13T10:56:24.183Z,1.77
2023-02-13T10:57:45.774Z,1.17
2023-02-13T10:59:07.855Z,1.75
2023-02-13T11:00:30.849Z,1.55
2023-02-13T11:01:45.907Z,1.98
2023-02-13T11:02:49.127Z,1.52
2023-02-13T11:04:05.772Z,1.33
2023-02-13T11:05:31.791Z,1.62
2023-02-13T11:06:42.818Z,1.20
2023-02-13T11:07:47.712Z,1.20
2023-02-13T11:08:50.789Z,1.77
2023-02-13T11:10:00.030Z,2.40
2023-02-13T11:11:03.102Z,1.20
2023-02-13T11:12:26.878Z,2.08
2023-02-13T11:13:30.821Z,1.80
2023-02-13T11:14:34.055Z,1.60
2023-02-13T11:15:37.383Z,2.10
2023-02-13T11:16:46.398Z,1.10
2023-02-13T11:17:51.230Z,2.03
2023-02-13T11:18:54.572Z,1.62
2023-02-13T11:20:01.594Z,1.80
2023-02-13T11:21:22.863Z,1.60
2023-02-13T11:22:35.649Z,1.87
2023-02-13T11:23:53.624Z,1.67
2023-02-13T11:25:03.966Z,1.45
2023-02-13T11:26:21.745Z,1.55
2023-02-13T11:27:30.285Z,2.15
2023-02-13T11:28:37.542Z,1.60
2023-02-13T11:30:06.555Z,1.73
2023-02-13T11:31:25.795Z,1.55
2023-02-13T11:32:34.083Z,2.03
2023-02-13T11:33:37.546Z,1.90
2023-02-13T11:34:40.588Z,1.60
2023-02-13T11:35:45.024Z,1.60
2023-02-13T11:36:53.045Z,1.48
2023-02-13T11:38:22.978Z,1.80
2023-02-13T11:39:27.381Z,1.33
2023-02-13T11:40:32.582Z,1.73
2023-02-13T11:41:42.341Z,1.70
2023-02-13T11:42:48.128Z,1.83
2023-02-13T11:44:01.333Z,1.40
2023-02-13T11:45:20.709Z,1.50
2023-02-13T11:46:26.801Z,1.23
2023-02-13T11:47:50.242Z,1.40
2023-02-13T11:49:21.701Z,1.52
2023-02-13T11:50:40.575Z,2.05
2023-02-13T11:51:46.785Z,1.45
2023-02-13T11:53:01.023Z,1.25
2023-02-13T11:54:05.506Z,1.90
2023-02-13T11:55:34.365Z,1.70
2023-02-13T11:57:07.529Z,1.83
2023-02-13T11:58:16.617Z,1.70
2023-02-13T11:59:23.798Z,2.12
2023-02-13T12:00:40.345Z,2.37
2023-02-13T12:01:44.722Z,2.00
2023-02-13T12:02:52.523Z,2.05
2023-02-13T12:04:08.514Z,2.20
2023-02-13T12:05:23.365Z,1.98
2023-02-13T12:06:26.434Z,1.73
2023-02-13T12:07:34.012Z,1.80
2023-02-13T12:08:39.163Z,1.77
2023-02-13T12:09:43.568Z,1.65
2023-02-13T12:10:46.659Z,1.90
2023-02-13T12:11:54.668Z,2.10
2023-02-13T12:13:22.193Z,1.95
2023-02-13T12:14:30.378Z,3.00
2023-02-13T12:15:37.710Z,2.33
2023-02-13T12:16:51.023Z,3.17
2023-02-13T12:17:59.712Z,2.42
2023-02-13T12:19:08.393Z,2.12
2023-02-13T12:20:18.353Z,2.67
2023-02-13T12:21:23.860Z,2.35
2023-02-13T12:22:34.929Z,2.85
2023-02-13T12:23:38.029Z,2.05
2023-02-13T12:24:42.286Z,2.00
2023-02-13T12:26:23.928Z,2.20
2023-02-13T12:27:43.068Z,1.90
2023-02-13T12:28:51.848Z,2.97
2023-02-13T12:30:03.853Z,2.40
2023-02-13T12:31:39.949Z,2.03
2023-02-13T12:33:04.732Z,2.00
2023-02-13T12:34:15.158Z,1.87
2023-02-13T12:35:39.771Z,1.55
2023-02-13T12:37:11.281Z,1.85
2023-02-13T12:38:50.922Z,1.67
2023-02-13T12:40:31.556Z,1.95
2023-02-13T12:42:02.745Z,1.30
2023-02-13T12:43:40.519Z,2.05
2023-02-13T12:45:05.703Z,1.65
2023-02-13T12:46:14.115Z,1.60
2023-02-13T12:47:25.047Z,2.12
2023-02-13T12:48:37.194Z,1.80
2023-02-13T12:49:49.494Z,2.08
2023-02-13T12:51:39.148Z,1.70
2023-02-13T12:53:07.044Z,1.92
2023-02-13T12:54:34.448Z,2.10
2023-02-13T12:55:58.482Z,1.75
2023-02-13T12:57:24.043Z,1.95
2023-02-13T12:58:44.323Z,2.10
2023-02-13T12:59:54.493Z,1.65
2023-02-13T13:01:14.960Z,2.05
2023-02-13T13:02:47.508Z,1.55
2023-02-13T13:04:15.156Z,1.80
2023-02-13T13:05:58.807Z,1.52
2023-02-13T13:07:34.111Z,1.12
2023-02-13T13:08:42.645Z,1.65
2023-02-13T13:10:04.522Z,1.52
2023-02-13T13:11:37.816Z,2.17
2023-02-13T13:12:52.326Z,1.10
2023-02-13T13:14:24.006Z,1.35
2023-02-13T13:15:45.627Z,1.30
2023-02-13T13:16:57.638Z,1.60
2023-02-13T13:18:09.697Z,1.70
2023-02-13T13:19:28.472Z,1.20
2023-02-13T13:20:53.360Z,1.00
2023-02-13T13:22:19.445Z,1.12
2023-02-13T13:23:29.838Z,1.30
2023-02-13T13:25:01.645Z,1.48
2023-02-13T13:26:07.664Z,1.17
2023-02-13T13:27:28.428Z,1.35
2023-02-13T13:28:42.068Z,1.45
2023-02-13T13:29:51.976Z,1.48
2023-02-13T13:30:58.054Z,1.12
2023-02-13T13:32:08.533Z,1.65
2023-02-13T13:33:21.100Z,1.23
2023-02-13T13:34:26.443Z,1.35
2023-02-13T13:35:31.029Z,1.62
2023-02-13T13:37:05.740Z,1.55
2023-02-13T13:38:26.097Z,1.10
2023-02-13T13:39:58.720Z,2.05
2023-02-13T13:41:43.098Z,1.62
2023-02-13T13:43:05.674Z,1.10
2023-02-13T13:44:17.412Z,1.62
2023-02-13T13:45:41.261Z,1.35
2023-02-13T13:46:59.395Z,1.77
2023-02-13T13:48:45.579Z,1.58
2023-02-13T13:49:58.493Z,1.60
2023-02-13T13:51:02.658Z,1.67
2023-02-13T13:52:34.282Z,2.12
2023-02-13T13:54:18.444Z,1.65
2023-02-13T13:56:05.455Z,1.65
2023-02-13T14:01:32.282Z,2.62
2023-02-13T14:04:04.951Z,2.03
2023-02-13T14:05:26.363Z,1.67
2023-02-13T14:07:46.613Z,1.75
2023-02-13T14:08:50.074Z,2.47
2023-02-13T14:09:53.146Z,2.12
2023-02-13T14:11:02.654Z,2.47
2023-02-13T14:12:46.051Z,2.00
2023-02-13T14:13:50.773Z,1.85
2023-02-13T14:14:54.439Z,1.83
2023-02-13T14:15:57.538Z,1.80
2023-02-13T14:17:02.625Z,1.60
2023-02-13T14:18:15.800Z,2.22
2023-02-13T14:19:29.447Z,2.17
2023-02-13T14:21:05.295Z,1.50
2023-02-13T14:22:20.568Z,1.98
2023-02-13T14:23:41.667Z,2.05
2023-02-13T14:25:07.280Z,2.08
2023-02-13T14:26:16.310Z,2.05
2023-02-13T14:27:25.260Z,2.78
2023-02-13T14:28:29.273Z,1.92
2023-02-13T14:29:34.334Z,2.75
2023-02-13T14:30:40.738Z,2.50
2023-02-13T14:32:22.362Z,2.80
2023-02-13T14:33:31.611Z,2.70
2023-02-13T14:34:39.419Z,2.70
2023-02-13T14:35:42.536Z,2.75
2023-02-13T14:37:05.662Z,2.85
2023-02-13T14:38:24.484Z,1.95
2023-02-13T14:39:38.218Z,2.60
2023-02-13T14:40:53.781Z,3.50
2023-02-13T14:42:01.721Z,1.87
2023-02-13T14:43:26.219Z,2.95
2023-02-13T14:44:35.089Z,2.10
2023-02-13T14:45:49.885Z,3.12
2023-02-13T14:46:54.907Z,1.55
2023-02-13T14:48:02.611Z,3.08
2023-02-13T14:49:20.109Z,2.10
2023-02-13T14:50:49.638Z,2.22
2023-02-13T14:52:22.539Z,2.90
2023-02-13T14:53:31.137Z,2.40
2023-02-13T14:54:39.712Z,2.83
2023-02-13T14:55:46.142Z,2.62
2023-02-13T14:56:52.390Z,2.47
2023-02-13T14:58:07.187Z,2.28
2023-02-13T14:59:20.178Z,2.20
2023-02-13T15:00:34.844Z,2.50
2023-02-13T15:01:47.496Z,2.53
2023-02-13T15:02:56.475Z,2.17
2023-02-13T15:04:15.530Z,2.15
2023-02-13T15:05:20.644Z,2.10
2023-02-13T15:06:39.912Z,2.35
2023-02-13T15:08:13.073Z,2.00
2023-02-13T15:09:22.354Z,2.15
2023-02-13T15:10:41.402Z,1.98
2023-02-13T15:11:45.223Z,2.10
2023-02-13T15:13:00.992Z,1.80
2023-02-13T15:14:20.871Z,2.17
2023-02-13T15:15:25.753Z,2.37
2023-02-13T15:16:29.094Z,1.92
2023-02-13T15:17:40.624Z,2.00
2023-02-13T15:18:53.162Z,2.05
2023-02-13T15:20:10.286Z,1.23
2023-02-13T15:21:20.480Z,2.15
2023-02-13T15:22:34.782Z,1.95
2023-02-13T15:23:38.659Z,1.60
2023-02-13T15:24:48.174Z,2.17
2023-02-13T15:25:58.514Z,1.73
2023-02-13T15:28:17.587Z,2.22
2023-02-13T15:29:29.296Z,2.35
2023-02-13T15:30:37.313Z,2.72
2023-02-13T15:31:40.915Z,1.27
2023-02-13T15:32:44.034Z,1.60
2023-02-13T15:33:49.925Z,1.30
2023-02-13T15:34:53.368Z,1.58
2023-02-13T15:36:05.560Z,1.40
2023-02-13T15:37:21.590Z,1.98
2023-02-13T15:38:38.497Z,1.23
2023-02-13T15:39:42.225Z,1.45
2023-02-13T15:40:45.791Z,1.90
2023-02-13T15:41:52.388Z,1.33
2023-02-13T15:42:57.119Z,1.73
2023-02-13T15:44:01.199Z,1.55
2023-02-13T15:45:05.344Z,1.75
2023-02-13T15:46:30.282Z,1.52
2023-02-13T15:47:34.648Z,1.73